sensor_id;sensor_type;location;lat;lon;timestamp;P1;durP1;ratioP1;P2;durP2;ratioP2
40459;SDS011;26164;51.138;16.952;2024-01-06T00:02:27;75.40;;;31.02;;
40459;SDS011;26164;51.138;16.952;2024-01-06T00:04:54;73.32;;;29.73;;
40459;SDS011;26164;51.138;16.952;2024-01-06T00:07:20;74.13;;;30.60;;
40459;SDS011;26164;51.138;16.952;2024-01-06T00:10:01;70.32;;;30.40;;
40459;SDS011;26164;51.138;16.952;2024-01-06T00:12:28;75.45;;;31.35;;
40459;SDS011;26164;51.138;16.952;2024-01-06T00:14:54;73.53;;;30.67;;
40459;SDS011;26164;51.138;16.952;2024-01-06T00:17:20;70.68;;;30.08;;
40459;SDS011;26164;51.138;16.952;2024-01-06T00:19:46;75.38;;;31.83;;
40459;SDS011;26164;51.138;16.952;2024-01-06T00:22:17;77.80;;;30.08;;
40459;SDS011;26164;51.138;16.952;2024-01-06T00:24:44;72.40;;;30.83;;
40459;SDS011;26164;51.138;16.952;2024-01-06T00:27:11;69.25;;;29.70;;
40459;SDS011;26164;51.138;16.952;2024-01-06T00:29:40;73.03;;;30.38;;
40459;SDS011;26164;51.138;16.952;2024-01-06T00:32:08;70.15;;;29.52;;
40459;SDS011;26164;51.138;16.952;2024-01-06T00:34:34;70.32;;;29.20;;
40459;SDS011;26164;51.138;16.952;2024-01-06T00:37:03;74.60;;;30.25;;
40459;SDS011;26164;51.138;16.952;2024-01-06T00:39:29;68.10;;;29.73;;
40459;SDS011;26164;51.138;16.952;2024-01-06T00:41:56;77.03;;;30.17;;
40459;SDS011;26164;51.138;16.952;2024-01-06T00:44:27;72.93;;;30.70;;
40459;SDS011;26164;51.138;16.952;2024-01-06T00:46:54;75.20;;;32.00;;
40459;SDS011;26164;51.138;16.952;2024-01-06T00:49:21;78.82;;;32.95;;
40459;SDS011;26164;51.138;16.952;2024-01-06T00:51:49;77.30;;;33.03;;
40459;SDS011;26164;51.138;16.952;2024-01-06T00:54:16;77.13;;;32.50;;
40459;SDS011;26164;51.138;16.952;2024-01-06T00:56:45;77.88;;;33.65;;
40459;SDS011;26164;51.138;16.952;2024-01-06T00:59:13;74.65;;;31.40;;
40459;SDS011;26164;51.138;16.952;2024-01-06T01:01:41;76.97;;;33.42;;
40459;SDS011;26164;51.138;16.952;2024-01-06T01:04:06;78.45;;;34.17;;
40459;SDS011;26164;51.138;16.952;2024-01-06T01:06:34;77.47;;;33.28;;
40459;SDS011;26164;51.138;16.952;2024-01-06T01:09:03;89.35;;;33.40;;
40459;SDS011;26164;51.138;16.952;2024-01-06T01:11:38;84.63;;;33.03;;
40459;SDS011;26164;51.138;16.952;2024-01-06T01:14:04;76.05;;;32.28;;
40459;SDS011;26164;51.138;16.952;2024-01-06T01:16:31;77.18;;;31.67;;
40459;SDS011;26164;51.138;16.952;2024-01-06T01:18:58;71.63;;;30.80;;
40459;SDS011;26164;51.138;16.952;2024-01-06T01:21:24;76.70;;;31.35;;
40459;SDS011;26164;51.138;16.952;2024-01-06T01:23:50;71.68;;;29.35;;
40459;SDS011;26164;51.138;16.952;2024-01-06T01:26:19;77.63;;;31.20;;
40459;SDS011;26164;51.138;16.952;2024-01-06T01:28:46;77.13;;;31.00;;
40459;SDS011;26164;51.138;16.952;2024-01-06T01:31:12;73.45;;;31.02;;
40459;SDS011;26164;51.138;16.952;2024-01-06T01:33:38;75.53;;;31.48;;
40459;SDS011;26164;51.138;16.952;2024-01-06T01:36:05;76.50;;;32.70;;
40459;SDS011;26164;51.138;16.952;2024-01-06T01:38:31;77.38;;;30.38;;
40459;SDS011;26164;51.138;16.952;2024-01-06T01:40:58;79.47;;;32.05;;
40459;SDS011;26164;51.138;16.952;2024-01-06T01:43:25;81.25;;;33.33;;
40459;SDS011;26164;51.138;16.952;2024-01-06T01:45:54;75.85;;;30.63;;
40459;SDS011;26164;51.138;16.952;2024-01-06T01:48:26;73.18;;;30.48;;
40459;SDS011;26164;51.138;16.952;2024-01-06T01:50:56;74.32;;;30.25;;
40459;SDS011;26164;51.138;16.952;2024-01-06T01:53:30;72.13;;;30.73;;
40459;SDS011;26164;51.138;16.952;2024-01-06T01:56:02;83.30;;;33.05;;
40459;SDS011;26164;51.138;16.952;2024-01-06T01:58:31;83.47;;;31.77;;
40459;SDS011;26164;51.138;16.952;2024-01-06T02:00:58;79.45;;;33.85;;
40459;SDS011;26164;51.138;16.952;2024-01-06T02:03:24;77.25;;;32.22;;
40459;SDS011;26164;51.138;16.952;2024-01-06T02:05:52;72.38;;;31.65;;
40459;SDS011;26164;51.138;16.952;2024-01-06T02:08:19;77.53;;;31.80;;
40459;SDS011;26164;51.138;16.952;2024-01-06T02:10:45;77.60;;;31.75;;
40459;SDS011;26164;51.138;16.952;2024-01-06T02:13:11;85.65;;;34.30;;
40459;SDS011;26164;51.138;16.952;2024-01-06T02:15:38;74.93;;;32.97;;
40459;SDS011;26164;51.138;16.952;2024-01-06T02:18:04;80.88;;;34.67;;
40459;SDS011;26164;51.138;16.952;2024-01-06T02:20:32;77.95;;;33.88;;
40459;SDS011;26164;51.138;16.952;2024-01-06T02:22:58;77.70;;;32.53;;
40459;SDS011;26164;51.138;16.952;2024-01-06T02:25:26;80.38;;;32.58;;
40459;SDS011;26164;51.138;16.952;2024-01-06T02:27:52;78.75;;;31.85;;
40459;SDS011;26164;51.138;16.952;2024-01-06T02:30:19;74.78;;;32.28;;
40459;SDS011;26164;51.138;16.952;2024-01-06T02:32:52;77.65;;;31.17;;
40459;SDS011;26164;51.138;16.952;2024-01-06T02:35:33;75.80;;;30.75;;
40459;SDS011;26164;51.138;16.952;2024-01-06T02:38:01;79.88;;;33.85;;
40459;SDS011;26164;51.138;16.952;2024-01-06T02:40:33;83.97;;;35.50;;
40459;SDS011;26164;51.138;16.952;2024-01-06T02:42:59;79.65;;;30.52;;
40459;SDS011;26164;51.138;16.952;2024-01-06T02:45:40;79.32;;;32.00;;
40459;SDS011;26164;51.138;16.952;2024-01-06T02:48:08;75.55;;;30.80;;
40459;SDS011;26164;51.138;16.952;2024-01-06T02:50:34;77.43;;;33.55;;
40459;SDS011;26164;51.138;16.952;2024-01-06T02:53:02;77.47;;;32.72;;
40459;SDS011;26164;51.138;16.952;2024-01-06T02:55:29;72.85;;;30.95;;
40459;SDS011;26164;51.138;16.952;2024-01-06T02:57:56;71.70;;;32.63;;
40459;SDS011;26164;51.138;16.952;2024-01-06T03:00:21;75.47;;;33.17;;
40459;SDS011;26164;51.138;16.952;2024-01-06T03:02:48;75.72;;;32.03;;
40459;SDS011;26164;51.138;16.952;2024-01-06T03:05:14;73.80;;;31.27;;
40459;SDS011;26164;51.138;16.952;2024-01-06T03:07:55;76.20;;;31.70;;
40459;SDS011;26164;51.138;16.952;2024-01-06T03:10:24;77.10;;;31.23;;
40459;SDS011;26164;51.138;16.952;2024-01-06T03:12:50;69.90;;;32.33;;
40459;SDS011;26164;51.138;16.952;2024-01-06T03:15:18;64.43;;;29.08;;
40459;SDS011;26164;51.138;16.952;2024-01-06T03:17:45;71.63;;;29.52;;
40459;SDS011;26164;51.138;16.952;2024-01-06T03:20:15;70.65;;;29.95;;
40459;SDS011;26164;51.138;16.952;2024-01-06T03:22:41;67.85;;;30.05;;
40459;SDS011;26164;51.138;16.952;2024-01-06T03:25:10;64.57;;;29.90;;
40459;SDS011;26164;51.138;16.952;2024-01-06T03:27:36;68.03;;;30.45;;
40459;SDS011;26164;51.138;16.952;2024-01-06T03:30:04;65.57;;;28.92;;
40459;SDS011;26164;51.138;16.952;2024-01-06T03:32:32;73.90;;;29.73;;
40459;SDS011;26164;51.138;16.952;2024-01-06T03:34:59;67.00;;;29.98;;
40459;SDS011;26164;51.138;16.952;2024-01-06T03:37:25;67.30;;;30.92;;
40459;SDS011;26164;51.138;16.952;2024-01-06T03:40:05;70.97;;;30.55;;
40459;SDS011;26164;51.138;16.952;2024-01-06T03:42:32;66.15;;;29.75;;
40459;SDS011;26164;51.138;16.952;2024-01-06T03:45:04;67.85;;;30.52;;
40459;SDS011;26164;51.138;16.952;2024-01-06T03:47:30;63.72;;;29.80;;
40459;SDS011;26164;51.138;16.952;2024-01-06T03:50:11;69.22;;;29.15;;
40459;SDS011;26164;51.138;16.952;2024-01-06T03:52:39;67.57;;;30.88;;
40459;SDS011;26164;51.138;16.952;2024-01-06T03:55:05;70.13;;;30.98;;
40459;SDS011;26164;51.138;16.952;2024-01-06T03:57:33;74.75;;;33.85;;
40459;SDS011;26164;51.138;16.952;2024-01-06T03:59:59;96.13;;;38.80;;
40459;SDS011;26164;51.138;16.952;2024-01-06T04:02:26;108.43;;;45.60;;
40459;SDS011;26164;51.138;16.952;2024-01-06T04:04:51;114.57;;;46.20;;
40459;SDS011;26164;51.138;16.952;2024-01-06T04:07:23;132.63;;;52.33;;
40459;SDS011;26164;51.138;16.952;2024-01-06T04:10:03;71.45;;;31.48;;
40459;SDS011;26164;51.138;16.952;2024-01-06T04:12:49;69.65;;;29.60;;
40459;SDS011;26164;51.138;16.952;2024-01-06T04:15:15;65.45;;;30.08;;
40459;SDS011;26164;51.138;16.952;2024-01-06T04:17:41;61.80;;;29.05;;
40459;SDS011;26164;51.138;16.952;2024-01-06T04:20:08;66.05;;;30.15;;
40459;SDS011;26164;51.138;16.952;2024-01-06T04:22:39;62.88;;;27.45;;
40459;SDS011;26164;51.138;16.952;2024-01-06T04:25:06;69.70;;;29.55;;
40459;SDS011;26164;51.138;16.952;2024-01-06T04:27:32;68.32;;;31.23;;
40459;SDS011;26164;51.138;16.952;2024-01-06T04:30:01;65.60;;;30.25;;
40459;SDS011;26164;51.138;16.952;2024-01-06T04:32:27;70.43;;;30.00;;
40459;SDS011;26164;51.138;16.952;2024-01-06T04:35:08;71.20;;;29.80;;
40459;SDS011;26164;51.138;16.952;2024-01-06T04:37:49;63.25;;;27.85;;
40459;SDS011;26164;51.138;16.952;2024-01-06T04:40:17;77.55;;;32.67;;
40459;SDS011;26164;51.138;16.952;2024-01-06T04:42:43;72.20;;;30.58;;
40459;SDS011;26164;51.138;16.952;2024-01-06T04:45:24;72.93;;;33.10;;
40459;SDS011;26164;51.138;16.952;2024-01-06T04:47:52;73.22;;;30.13;;
40459;SDS011;26164;51.138;16.952;2024-01-06T04:50:19;68.55;;;31.83;;
40459;SDS011;26164;51.138;16.952;2024-01-06T04:52:48;74.05;;;31.17;;
40459;SDS011;26164;51.138;16.952;2024-01-06T04:55:14;70.20;;;29.95;;
40459;SDS011;26164;51.138;16.952;2024-01-06T04:57:55;74.05;;;30.60;;
40459;SDS011;26164;51.138;16.952;2024-01-06T05:00:22;70.57;;;30.23;;
40459;SDS011;26164;51.138;16.952;2024-01-06T05:02:48;69.55;;;28.20;;
40459;SDS011;26164;51.138;16.952;2024-01-06T05:05:14;75.28;;;31.73;;
40459;SDS011;26164;51.138;16.952;2024-01-06T05:07:40;66.95;;;30.65;;
40459;SDS011;26164;51.138;16.952;2024-01-06T05:10:06;74.28;;;29.60;;
40459;SDS011;26164;51.138;16.952;2024-01-06T05:12:32;65.22;;;27.00;;
40459;SDS011;26164;51.138;16.952;2024-01-06T05:14:58;67.55;;;28.27;;
40459;SDS011;26164;51.138;16.952;2024-01-06T05:17:24;69.82;;;29.95;;
40459;SDS011;26164;51.138;16.952;2024-01-06T05:19:51;70.60;;;28.95;;
40459;SDS011;26164;51.138;16.952;2024-01-06T05:22:16;70.93;;;28.48;;
40459;SDS011;26164;51.138;16.952;2024-01-06T05:24:42;65.22;;;26.95;;
40459;SDS011;26164;51.138;16.952;2024-01-06T05:27:08;71.90;;;30.92;;
40459;SDS011;26164;51.138;16.952;2024-01-06T05:29:34;76.28;;;29.58;;
40459;SDS011;26164;51.138;16.952;2024-01-06T05:32:00;63.78;;;28.65;;
40459;SDS011;26164;51.138;16.952;2024-01-06T05:34:26;68.95;;;27.52;;
40459;SDS011;26164;51.138;16.952;2024-01-06T05:36:52;68.07;;;28.48;;
40459;SDS011;26164;51.138;16.952;2024-01-06T05:39:19;68.40;;;29.15;;
40459;SDS011;26164;51.138;16.952;2024-01-06T05:41:44;67.97;;;29.77;;
40459;SDS011;26164;51.138;16.952;2024-01-06T05:44:10;72.22;;;28.63;;
40459;SDS011;26164;51.138;16.952;2024-01-06T05:46:36;77.00;;;29.85;;
40459;SDS011;26164;51.138;16.952;2024-01-06T05:49:02;73.10;;;29.05;;
40459;SDS011;26164;51.138;16.952;2024-01-06T05:51:28;72.65;;;30.85;;
40459;SDS011;26164;51.138;16.952;2024-01-06T05:53:54;79.53;;;29.13;;
40459;SDS011;26164;51.138;16.952;2024-01-06T05:56:26;67.10;;;29.23;;
40459;SDS011;26164;51.138;16.952;2024-01-06T05:58:53;72.78;;;28.50;;
40459;SDS011;26164;51.138;16.952;2024-01-06T06:01:19;68.18;;;29.33;;
40459;SDS011;26164;51.138;16.952;2024-01-06T06:03:46;66.65;;;28.50;;
40459;SDS011;26164;51.138;16.952;2024-01-06T06:06:12;66.47;;;28.83;;
40459;SDS011;26164;51.138;16.952;2024-01-06T06:08:39;67.90;;;28.23;;
40459;SDS011;26164;51.138;16.952;2024-01-06T06:11:07;67.22;;;28.02;;
40459;SDS011;26164;51.138;16.952;2024-01-06T06:13:37;69.68;;;28.65;;
40459;SDS011;26164;51.138;16.952;2024-01-06T06:16:06;69.13;;;29.27;;
40459;SDS011;26164;51.138;16.952;2024-01-06T06:18:34;71.97;;;28.88;;
40459;SDS011;26164;51.138;16.952;2024-01-06T06:21:00;66.45;;;28.33;;
40459;SDS011;26164;51.138;16.952;2024-01-06T06:23:32;62.90;;;27.50;;
40459;SDS011;26164;51.138;16.952;2024-01-06T06:25:58;67.00;;;28.75;;
40459;SDS011;26164;51.138;16.952;2024-01-06T06:28:25;68.38;;;27.40;;
40459;SDS011;26164;51.138;16.952;2024-01-06T06:30:51;67.78;;;27.92;;
40459;SDS011;26164;51.138;16.952;2024-01-06T06:33:17;63.03;;;27.98;;
40459;SDS011;26164;51.138;16.952;2024-01-06T06:35:43;67.97;;;26.55;;
40459;SDS011;26164;51.138;16.952;2024-01-06T06:38:09;67.80;;;27.02;;
40459;SDS011;26164;51.138;16.952;2024-01-06T06:40:34;65.47;;;27.55;;
40459;SDS011;26164;51.138;16.952;2024-01-06T06:43:01;64.82;;;26.23;;
40459;SDS011;26164;51.138;16.952;2024-01-06T06:45:26;63.05;;;26.40;;
40459;SDS011;26164;51.138;16.952;2024-01-06T06:47:52;72.72;;;29.02;;
40459;SDS011;26164;51.138;16.952;2024-01-06T06:50:18;58.92;;;25.55;;
40459;SDS011;26164;51.138;16.952;2024-01-06T06:52:46;59.95;;;24.88;;
40459;SDS011;26164;51.138;16.952;2024-01-06T06:55:12;55.03;;;22.13;;
40459;SDS011;26164;51.138;16.952;2024-01-06T06:57:38;62.58;;;26.15;;
40459;SDS011;26164;51.138;16.952;2024-01-06T07:00:04;52.67;;;24.80;;
40459;SDS011;26164;51.138;16.952;2024-01-06T07:02:33;59.20;;;26.05;;
40459;SDS011;26164;51.138;16.952;2024-01-06T07:04:59;57.38;;;24.88;;
40459;SDS011;26164;51.138;16.952;2024-01-06T07:07:25;56.67;;;23.77;;
40459;SDS011;26164;51.138;16.952;2024-01-06T07:09:52;62.38;;;25.02;;
40459;SDS011;26164;51.138;16.952;2024-01-06T07:12:23;62.08;;;25.45;;
40459;SDS011;26164;51.138;16.952;2024-01-06T07:14:50;54.20;;;24.25;;
40459;SDS011;26164;51.138;16.952;2024-01-06T07:17:17;57.75;;;25.48;;
40459;SDS011;26164;51.138;16.952;2024-01-06T07:19:43;55.92;;;24.35;;
40459;SDS011;26164;51.138;16.952;2024-01-06T07:22:09;55.28;;;23.67;;
40459;SDS011;26164;51.138;16.952;2024-01-06T07:24:36;52.25;;;23.08;;
40459;SDS011;26164;51.138;16.952;2024-01-06T07:27:04;57.80;;;25.80;;
40459;SDS011;26164;51.138;16.952;2024-01-06T07:29:30;60.10;;;24.15;;
40459;SDS011;26164;51.138;16.952;2024-01-06T07:31:56;53.45;;;24.45;;
40459;SDS011;26164;51.138;16.952;2024-01-06T07:34:22;57.00;;;25.02;;
40459;SDS011;26164;51.138;16.952;2024-01-06T07:36:51;57.80;;;22.38;;
40459;SDS011;26164;51.138;16.952;2024-01-06T07:39:18;52.45;;;22.50;;
40459;SDS011;26164;51.138;16.952;2024-01-06T07:41:46;56.13;;;24.17;;
40459;SDS011;26164;51.138;16.952;2024-01-06T07:44:12;52.47;;;23.88;;
40459;SDS011;26164;51.138;16.952;2024-01-06T07:46:42;47.92;;;22.20;;
40459;SDS011;26164;51.138;16.952;2024-01-06T07:49:07;51.85;;;22.95;;
40459;SDS011;26164;51.138;16.952;2024-01-06T07:51:34;52.28;;;24.75;;
40459;SDS011;26164;51.138;16.952;2024-01-06T07:54:00;58.10;;;23.17;;
40459;SDS011;26164;51.138;16.952;2024-01-06T07:56:27;55.42;;;24.25;;
40459;SDS011;26164;51.138;16.952;2024-01-06T07:58:53;52.88;;;24.65;;
40459;SDS011;26164;51.138;16.952;2024-01-06T08:01:20;55.13;;;23.23;;
40459;SDS011;26164;51.138;16.952;2024-01-06T08:03:46;56.40;;;23.63;;
40459;SDS011;26164;51.138;16.952;2024-01-06T08:06:13;49.10;;;22.30;;
40459;SDS011;26164;51.138;16.952;2024-01-06T08:08:39;54.53;;;22.90;;
40459;SDS011;26164;51.138;16.952;2024-01-06T08:11:05;49.50;;;21.13;;
40459;SDS011;26164;51.138;16.952;2024-01-06T08:13:31;53.90;;;23.38;;
40459;SDS011;26164;51.138;16.952;2024-01-06T08:15:58;54.58;;;23.75;;
40459;SDS011;26164;51.138;16.952;2024-01-06T08:18:24;48.28;;;22.85;;
40459;SDS011;26164;51.138;16.952;2024-01-06T08:20:50;54.65;;;23.25;;
40459;SDS011;26164;51.138;16.952;2024-01-06T08:23:16;51.97;;;22.98;;
40459;SDS011;26164;51.138;16.952;2024-01-06T08:25:46;48.40;;;22.33;;
40459;SDS011;26164;51.138;16.952;2024-01-06T08:28:13;48.00;;;20.88;;
40459;SDS011;26164;51.138;16.952;2024-01-06T08:30:46;46.53;;;20.58;;
40459;SDS011;26164;51.138;16.952;2024-01-06T08:33:28;47.55;;;20.98;;
40459;SDS011;26164;51.138;16.952;2024-01-06T08:36:09;48.13;;;20.48;;
40459;SDS011;26164;51.138;16.952;2024-01-06T08:38:45;53.28;;;22.17;;
40459;SDS011;26164;51.138;16.952;2024-01-06T08:50:09;52.03;;;21.75;;
40459;SDS011;26164;51.138;16.952;2024-01-06T09:02:51;55.05;;;21.48;;
40459;SDS011;26164;51.138;16.952;2024-01-06T09:05:58;45.88;;;19.83;;
40459;SDS011;26164;51.138;16.952;2024-01-06T09:23:50;50.83;;;23.45;;
40459;SDS011;26164;51.138;16.952;2024-01-06T09:30:06;65.28;;;26.13;;
40459;SDS011;26164;51.138;16.952;2024-01-06T09:32:50;56.47;;;24.15;;
40459;SDS011;26164;51.138;16.952;2024-01-06T09:38:51;58.70;;;24.83;;
40459;SDS011;26164;51.138;16.952;2024-01-06T09:41:19;54.03;;;23.35;;
40459;SDS011;26164;51.138;16.952;2024-01-06T09:44:12;61.70;;;23.25;;
40459;SDS011;26164;51.138;16.952;2024-01-06T09:47:25;56.15;;;24.25;;
40459;SDS011;26164;51.138;16.952;2024-01-06T09:53:05;53.42;;;26.00;;
40459;SDS011;26164;51.138;16.952;2024-01-06T09:59:43;59.90;;;24.35;;
40459;SDS011;26164;51.138;16.952;2024-01-06T10:05:42;55.88;;;23.35;;
40459;SDS011;26164;51.138;16.952;2024-01-06T10:08:32;55.03;;;24.05;;
40459;SDS011;26164;51.138;16.952;2024-01-06T10:11:39;51.58;;;22.70;;
40459;SDS011;26164;51.138;16.952;2024-01-06T10:59:40;46.58;;;19.92;;
40459;SDS011;26164;51.138;16.952;2024-01-06T11:02:17;53.53;;;24.02;;
40459;SDS011;26164;51.138;16.952;2024-01-06T11:05:05;54.10;;;24.55;;
40459;SDS011;26164;51.138;16.952;2024-01-06T11:07:54;56.67;;;24.45;;
40459;SDS011;26164;51.138;16.952;2024-01-06T11:10:54;55.25;;;25.88;;
40459;SDS011;26164;51.138;16.952;2024-01-06T12:08:43;88.20;;;35.03;;
40459;SDS011;26164;51.138;16.952;2024-01-06T12:11:24;85.38;;;36.60;;
40459;SDS011;26164;51.138;16.952;2024-01-06T12:14:31;79.40;;;33.22;;
40459;SDS011;26164;51.138;16.952;2024-01-06T12:17:38;82.75;;;36.35;;
40459;SDS011;26164;51.138;16.952;2024-01-06T12:20:36;77.32;;;34.75;;
40459;SDS011;26164;51.138;16.952;2024-01-06T12:23:09;87.72;;;34.28;;
40459;SDS011;26164;51.138;16.952;2024-01-06T12:25:41;81.20;;;36.15;;
40459;SDS011;26164;51.138;16.952;2024-01-06T12:31:41;82.25;;;35.40;;
40459;SDS011;26164;51.138;16.952;2024-01-06T12:34:25;85.20;;;35.90;;
40459;SDS011;26164;51.138;16.952;2024-01-06T12:37:22;87.70;;;35.58;;
40459;SDS011;26164;51.138;16.952;2024-01-06T12:39:56;85.80;;;36.35;;
40459;SDS011;26164;51.138;16.952;2024-01-06T12:43:49;94.20;;;35.75;;
40459;SDS011;26164;51.138;16.952;2024-01-06T12:46:23;93.65;;;37.40;;
40459;SDS011;26164;51.138;16.952;2024-01-06T12:48:53;94.63;;;37.08;;
40459;SDS011;26164;51.138;16.952;2024-01-06T12:51:20;79.90;;;34.92;;
40459;SDS011;26164;51.138;16.952;2024-01-06T12:53:46;87.00;;;37.65;;
40459;SDS011;26164;51.138;16.952;2024-01-06T12:56:59;83.47;;;34.35;;
40459;SDS011;26164;51.138;16.952;2024-01-06T13:02:21;87.80;;;35.33;;
40459;SDS011;26164;51.138;16.952;2024-01-06T13:04:57;88.72;;;37.20;;
40459;SDS011;26164;51.138;16.952;2024-01-06T13:07:29;89.82;;;35.72;;
40459;SDS011;26164;51.138;16.952;2024-01-06T13:09:56;97.35;;;38.55;;
40459;SDS011;26164;51.138;16.952;2024-01-06T13:43:13;85.47;;;30.08;;
40459;SDS011;26164;51.138;16.952;2024-01-06T13:50:30;85.38;;;31.45;;
40459;SDS011;26164;51.138;16.952;2024-01-06T13:52:58;77.00;;;31.17;;
40459;SDS011;26164;51.138;16.952;2024-01-06T13:55:25;78.10;;;32.90;;
40459;SDS011;26164;51.138;16.952;2024-01-06T13:57:52;75.00;;;30.10;;
40459;SDS011;26164;51.138;16.952;2024-01-06T14:00:20;80.05;;;33.30;;
40459;SDS011;26164;51.138;16.952;2024-01-06T14:02:54;79.13;;;32.35;;
40459;SDS011;26164;51.138;16.952;2024-01-06T14:05:23;83.15;;;33.30;;
40459;SDS011;26164;51.138;16.952;2024-01-06T14:07:53;79.72;;;34.90;;
40459;SDS011;26164;51.138;16.952;2024-01-06T14:10:36;82.72;;;34.95;;
40459;SDS011;26164;51.138;16.952;2024-01-06T14:13:19;89.70;;;35.70;;
40459;SDS011;26164;51.138;16.952;2024-01-06T14:16:25;84.13;;;34.58;;
40459;SDS011;26164;51.138;16.952;2024-01-06T14:18:52;76.32;;;31.85;;
40459;SDS011;26164;51.138;16.952;2024-01-06T14:21:21;80.78;;;32.15;;
40459;SDS011;26164;51.138;16.952;2024-01-06T14:24:11;73.03;;;28.13;;
40459;SDS011;26164;51.138;16.952;2024-01-06T14:26:38;67.43;;;27.88;;
40459;SDS011;26164;51.138;16.952;2024-01-06T14:32:54;77.55;;;31.58;;
40459;SDS011;26164;51.138;16.952;2024-01-06T14:35:40;81.05;;;31.60;;
40459;SDS011;26164;51.138;16.952;2024-01-06T14:38:14;77.70;;;33.97;;
40459;SDS011;26164;51.138;16.952;2024-01-06T14:40:51;77.45;;;31.83;;
40459;SDS011;26164;51.138;16.952;2024-01-06T14:43:24;89.45;;;35.22;;
40459;SDS011;26164;51.138;16.952;2024-01-06T14:46:13;78.40;;;29.45;;
40459;SDS011;26164;51.138;16.952;2024-01-06T14:48:58;64.75;;;26.55;;
40459;SDS011;26164;51.138;16.952;2024-01-06T14:51:28;76.10;;;30.55;;
40459;SDS011;26164;51.138;16.952;2024-01-06T14:54:16;77.03;;;31.52;;
40459;SDS011;26164;51.138;16.952;2024-01-06T14:56:46;71.60;;;31.77;;
40459;SDS011;26164;51.138;16.952;2024-01-06T15:00:25;74.88;;;31.70;;
40459;SDS011;26164;51.138;16.952;2024-01-06T15:03:04;73.72;;;30.70;;
40459;SDS011;26164;51.138;16.952;2024-01-06T15:05:30;68.68;;;29.45;;
40459;SDS011;26164;51.138;16.952;2024-01-06T15:08:06;76.47;;;31.10;;
40459;SDS011;26164;51.138;16.952;2024-01-06T15:10:44;83.45;;;34.65;;
40459;SDS011;26164;51.138;16.952;2024-01-06T15:13:36;73.55;;;30.95;;
40459;SDS011;26164;51.138;16.952;2024-01-06T15:16:30;74.60;;;33.35;;
40459;SDS011;26164;51.138;16.952;2024-01-06T15:19:50;74.45;;;30.77;;
40459;SDS011;26164;51.138;16.952;2024-01-06T15:22:58;78.07;;;31.13;;
40459;SDS011;26164;51.138;16.952;2024-01-06T15:25:29;76.85;;;29.25;;
40459;SDS011;26164;51.138;16.952;2024-01-06T15:27:59;74.90;;;31.67;;
40459;SDS011;26164;51.138;16.952;2024-01-06T15:30:40;83.53;;;31.92;;
40459;SDS011;26164;51.138;16.952;2024-01-06T15:33:29;79.75;;;30.05;;
40459;SDS011;26164;51.138;16.952;2024-01-06T15:40:03;86.97;;;32.17;;
40459;SDS011;26164;51.138;16.952;2024-01-06T15:42:42;76.78;;;28.42;;
40459;SDS011;26164;51.138;16.952;2024-01-06T15:45:13;78.53;;;33.42;;
40459;SDS011;26164;51.138;16.952;2024-01-06T15:48:00;86.90;;;33.83;;
40459;SDS011;26164;51.138;16.952;2024-01-06T15:50:36;81.18;;;32.67;;
40459;SDS011;26164;51.138;16.952;2024-01-06T15:53:17;77.72;;;30.88;;
40459;SDS011;26164;51.138;16.952;2024-01-06T15:55:59;85.22;;;31.23;;
40459;SDS011;26164;51.138;16.952;2024-01-06T15:58:51;72.57;;;27.45;;
40459;SDS011;26164;51.138;16.952;2024-01-06T16:02:20;69.32;;;26.98;;
40459;SDS011;26164;51.138;16.952;2024-01-06T16:05:09;73.97;;;28.88;;
40459;SDS011;26164;51.138;16.952;2024-01-06T16:07:53;77.05;;;30.30;;
40459;SDS011;26164;51.138;16.952;2024-01-06T16:10:22;79.00;;;31.27;;
40459;SDS011;26164;51.138;16.952;2024-01-06T16:13:18;71.85;;;29.50;;
40459;SDS011;26164;51.138;16.952;2024-01-06T16:16:16;74.03;;;30.83;;
40459;SDS011;26164;51.138;16.952;2024-01-06T16:22:31;72.60;;;29.48;;
40459;SDS011;26164;51.138;16.952;2024-01-06T16:25:01;72.28;;;29.13;;
40459;SDS011;26164;51.138;16.952;2024-01-06T16:27:33;69.07;;;29.58;;
40459;SDS011;26164;51.138;16.952;2024-01-06T16:30:11;60.05;;;25.75;;
40459;SDS011;26164;51.138;16.952;2024-01-06T16:32:43;62.35;;;26.65;;
40459;SDS011;26164;51.138;16.952;2024-01-06T16:35:14;71.88;;;29.40;;
40459;SDS011;26164;51.138;16.952;2024-01-06T16:37:45;56.42;;;24.42;;
40459;SDS011;26164;51.138;16.952;2024-01-06T16:40:12;63.33;;;27.15;;
40459;SDS011;26164;51.138;16.952;2024-01-06T16:42:39;64.38;;;27.42;;
40459;SDS011;26164;51.138;16.952;2024-01-06T16:45:07;66.47;;;26.65;;
40459;SDS011;26164;51.138;16.952;2024-01-06T16:47:34;57.50;;;23.88;;
40459;SDS011;26164;51.138;16.952;2024-01-06T16:50:03;51.40;;;23.17;;
40459;SDS011;26164;51.138;16.952;2024-01-06T16:52:33;62.75;;;25.95;;
40459;SDS011;26164;51.138;16.952;2024-01-06T16:55:15;62.17;;;25.85;;
40459;SDS011;26164;51.138;16.952;2024-01-06T16:57:57;65.13;;;27.73;;
40459;SDS011;26164;51.138;16.952;2024-01-06T17:00:26;70.38;;;28.00;;
40459;SDS011;26164;51.138;16.952;2024-01-06T17:03:09;72.25;;;27.75;;
40459;SDS011;26164;51.138;16.952;2024-01-06T17:05:35;64.32;;;24.70;;
40459;SDS011;26164;51.138;16.952;2024-01-06T17:08:03;57.95;;;25.15;;
40459;SDS011;26164;51.138;16.952;2024-01-06T17:10:31;70.45;;;28.15;;
40459;SDS011;26164;51.138;16.952;2024-01-06T17:12:59;69.53;;;28.63;;
40459;SDS011;26164;51.138;16.952;2024-01-06T17:15:28;67.35;;;29.88;;
40459;SDS011;26164;51.138;16.952;2024-01-06T17:17:59;57.35;;;24.35;;
40459;SDS011;26164;51.138;16.952;2024-01-06T17:20:31;64.03;;;28.58;;
40459;SDS011;26164;51.138;16.952;2024-01-06T17:23:07;69.82;;;28.23;;
40459;SDS011;26164;51.138;16.952;2024-01-06T17:28:38;68.38;;;27.15;;
40459;SDS011;26164;51.138;16.952;2024-01-06T17:31:05;69.47;;;28.58;;
40459;SDS011;26164;51.138;16.952;2024-01-06T17:33:30;71.57;;;27.67;;
40459;SDS011;26164;51.138;16.952;2024-01-06T17:36:03;69.90;;;28.10;;
40459;SDS011;26164;51.138;16.952;2024-01-06T17:38:34;63.38;;;27.52;;
40459;SDS011;26164;51.138;16.952;2024-01-06T17:41:15;69.30;;;29.50;;
40459;SDS011;26164;51.138;16.952;2024-01-06T17:43:53;73.05;;;29.30;;
40459;SDS011;26164;51.138;16.952;2024-01-06T17:46:31;77.47;;;30.15;;
40459;SDS011;26164;51.138;16.952;2024-01-06T17:49:12;71.75;;;31.88;;
40459;SDS011;26164;51.138;16.952;2024-01-06T17:51:44;69.53;;;30.00;;
40459;SDS011;26164;51.138;16.952;2024-01-06T17:54:24;60.78;;;22.58;;
40459;SDS011;26164;51.138;16.952;2024-01-06T17:56:52;55.72;;;25.48;;
40459;SDS011;26164;51.138;16.952;2024-01-06T17:59:29;63.03;;;25.25;;
40459;SDS011;26164;51.138;16.952;2024-01-06T18:02:06;54.20;;;24.42;;
40459;SDS011;26164;51.138;16.952;2024-01-06T18:04:43;54.13;;;23.42;;
40459;SDS011;26164;51.138;16.952;2024-01-06T18:07:33;59.00;;;24.52;;
40459;SDS011;26164;51.138;16.952;2024-01-06T18:10:00;66.93;;;28.17;;